Latest Weather Observations for Fowlers Gap

IDN60801

Issued at 1:03 pm EST Friday 18 August 2017 (issued every 30 minutes, with the page automatically refreshed every 10 minutes)

About weather observations | Map of weather stations | Latest weather observations for NSW | Other Formats
Station Details ID: 046128 Name: FOWLERS GAP AWS Lat: -31.09 Lon: 141.70 Height: 181.0 m
Data from the previous 72 hours. | See also: Recent months at Fowlers Gap
Date/Time
EST
Temp
°C
App
Temp
°C
Dew
Point
°C
Rel
Hum
%
Delta-T
°C
Wind Press
QNH
hPa
Press
MSL
hPa
Rain since
9am
mm
Dir  Spd
km/h
Gust
km/h
Spd
kts
Gust
kts
18/01:00pm 15.8 8.6 0.4 35 6.6 SW 28 39 15 21 1023.1 1023.1 0.0
18/12:30pm 15.1 8.6 0.5 37 6.3 SW 24 39 13 21 1023.3 1023.3 0.0
18/12:00pm 15.1 8.3 0.9 38 6.1 SSW 26 37 14 20 1023.6 1023.6 0.0
18/11:30am 14.7 7.2 1.3 40 5.9 SW 30 43 16 23 1023.8 1023.9 0.0
18/11:00am 14.0 6.1 1.0 41 5.6 SW 32 43 17 23 1023.8 1023.9 0.0
18/10:30am 13.4 5.6 1.4 44 5.2 SW 32 41 17 22 1024.0 1024.1 0.0
18/10:00am 13.2 4.8 1.8 46 4.9 SW 35 48 19 26 1024.0 1024.1 0.0
18/09:53am 13.1 5.6 1.5 45 5.0 SW 30 48 16 26 1024.0 1024.1 0.0
18/09:30am 13.0 6.1 2.8 50 4.5 SW 28 35 15 19 1023.7 1023.7 0.0
18/09:00am 12.1 5.7 3.1 54 4.0 WSW 26 37 14 20 1023.3 1023.3 0.0
18/08:30am 11.1 5.9 2.7 56 3.7 WSW 19 24 10 13 1022.9 1022.9 0.0
18/08:00am 8.9 6.1 2.0 62 2.9 WSW 6 11 3 6 1022.3 1022.3 0.0
18/07:30am 7.4 3.9 1.3 65 2.5 W 9 11 5 6 1021.9 1021.9 0.0
18/07:00am 7.8 3.9 1.2 63 2.7 WSW 11 15 6 8 1021.5 1021.5 0.0
18/06:30am 8.5 4.3 1.4 61 2.9 WSW 13 15 7 8 1021.0 1021.0 0.0
18/06:00am 8.9 3.5 1.3 59 3.1 WSW 19 22 10 12 1020.5 1020.6 0.0
18/05:30am 9.2 3.6 1.1 57 3.3 WSW 20 26 11 14 1020.3 1020.4 0.0
18/05:00am 9.9 3.9 1.3 55 3.6 WSW 22 28 12 15 1019.7 1019.8 0.0
18/04:30am 10.3 3.6 1.2 53 3.8 WSW 26 33 14 18 1019.2 1019.3 0.0
18/04:00am 10.8 2.9 1.1 51 4.1 WSW 32 35 17 19 1018.9 1018.9 0.0
18/03:30am 10.6 3.9 1.4 53 3.9 WSW 26 32 14 17 1018.6 1018.6 0.0
18/03:00am 10.8 4.9 1.4 52 4.0 W 22 26 12 14 1018.6 1018.6 0.0
18/02:30am 11.3 5.4 1.5 51 4.2 W 22 28 12 15 1018.4 1018.4 0.0
18/02:00am 11.6 6.0 1.5 50 4.3 W 20 24 11 13 1018.4 1018.4 0.0
18/01:30am 12.2 6.6 1.2 47 4.7 W 20 26 11 14 1018.4 1018.4 0.0
18/01:00am 13.1 6.8 1.5 45 5.0 W 24 32 13 17 1018.1 1018.1 0.0
18/12:30am 13.3 7.3 1.3 44 5.2 W 22 28 12 15 1018.0 1018.0 0.0
18/12:00am 13.6 8.0 1.3 43 5.3 W 20 26 11 14 1017.9 1017.9 0.0
 
Date/Time
EST
Temp
°C
App
Temp
°C
Dew
Point
°C
Rel
Hum
%
Delta-T
°C
Wind Press
QNH
hPa
Press
MSL
hPa
Rain since
9am
mm
Dir  Spd
km/h
Gust
km/h
Spd
kts
Gust
kts
17/11:30pm 14.0 7.6 1.0 41 5.6 W 24 32 13 17 1017.6 1017.6 0.0
17/11:00pm 14.4 7.9 0.6 39 5.9 W 24 30 13 16 1017.4 1017.4 0.0
17/10:30pm 14.7 8.2 0.2 37 6.2 W 24 33 13 18 1017.1 1017.1 0.0
17/10:00pm 14.9 8.4 0.0 36 6.3 W 24 32 13 17 1017.0 1017.0 0.0
17/09:30pm 15.1 9.3 0.2 36 6.4 W 20 26 11 14 1016.8 1016.8 0.0
17/09:00pm 15.6 9.5 0.2 35 6.6 WSW 22 30 12 16 1016.4 1016.4 0.0
17/08:30pm 15.9 9.8 0.1 34 6.8 W 22 28 12 15 1016.0 1016.0 0.0
17/08:00pm 16.2 10.4 -0.1 33 7.0 W 20 24 11 13 1015.6 1015.6 0.0
17/07:30pm 16.8 11.0 -0.4 31 7.4 W 20 28 11 15 1014.9 1015.0 0.0
17/07:00pm 17.5 10.8 -1.2 28 8.0 W 24 32 13 17 1014.3 1014.3 0.0
17/06:30pm 18.3 10.3 -2.0 25 8.6 W 30 39 16 21 1013.9 1013.9 0.0
17/06:00pm 19.0 11.6 -0.9 26 8.6 W 28 37 15 20 1013.5 1013.5 0.0
17/05:30pm 19.8 10.6 -1.3 24 9.1 W 37 52 20 28 1013.1 1013.1 0.0
17/05:00pm 20.3 11.1 -1.5 23 9.5 WNW 37 46 20 25 1012.9 1012.9 0.0
17/04:30pm 20.4 10.9 -0.8 24 9.3 WNW 39 48 21 26 1012.5 1012.5 0.0
17/04:00pm 20.4 10.4 -1.4 23 9.5 WNW 41 56 22 30 1012.5 1012.5 0.0
17/03:30pm 20.8 11.6 -1.1 23 9.6 WNW 37 56 20 30 1012.7 1012.7 0.0
17/03:29pm 20.8 11.7 -0.5 24 9.5 WNW 37 56 20 30 1012.7 1012.7 0.0
17/03:00pm 20.7 10.8 -0.6 24 9.4 WNW 41 56 22 30 1012.8 1012.8 0.0
17/02:30pm 20.7 10.3 -1.8 22 9.7 W 43 52 23 28 1012.7 1012.7 0.0
17/02:00pm 20.9 11.7 -1.0 23 9.6 W 37 48 20 26 1012.9 1012.9 0.0
17/01:30pm 20.5 12.7 -0.7 24 9.4 WNW 30 50 16 27 1013.1 1013.1 0.0
17/01:27pm 20.7 12.6 -0.6 24 9.4 WNW 32 50 17 27 1013.0 1013.0 0.0
17/01:00pm 20.0 11.9 -0.6 25 9.1 W 32 39 17 21 1013.4 1013.4 0.0
17/12:30pm 19.8 11.6 -0.8 25 9.0 W 32 43 17 23 1013.9 1013.9 0.0
17/12:00pm 19.8 11.4 -0.8 25 9.0 W 33 46 18 25 1014.2 1014.2 0.0
17/11:30am 19.1 11.0 -0.3 27 8.5 W 32 43 17 23 1014.5 1014.6 0.0
17/11:00am 18.4 11.0 -0.4 28 8.2 W 28 39 15 21 1014.8 1014.9 0.0
17/10:30am 17.7 11.9 -0.1 30 7.8 WNW 20 32 11 17 1015.1 1015.1 0.0
17/10:00am 16.5 10.3 -0.2 32 7.2 NW 22 30 12 16 1014.9 1015.0 0.0
17/09:30am 15.1 9.3 -0.2 35 6.5 NW 20 26 11 14 1014.8 1014.9 0.0
17/09:00am 13.7 8.1 -0.3 38 5.9 NW 19 26 10 14 1014.5 1014.6 0.0
17/08:30am 12.3 7.1 -0.2 42 5.2 NW 17 24 9 13 1014.1 1014.1 0.0
17/08:00am 11.6 7.6 0.4 46 4.7 NNW 11 15 6 8 1013.8 1013.8 0.0
17/07:30am 11.0 6.2 0.1 47 4.5 NNW 15 19 8 10 1013.3 1013.3 0.0
17/07:00am 10.4 5.9 -0.1 48 4.3 NW 13 17 7 9 1013.1 1013.1 0.0
17/06:30am 10.6 5.8 0.1 48 4.3 NW 15 22 8 12 1012.7 1012.7 0.0
17/06:00am 11.0 6.2 0.1 47 4.5 NW 15 22 8 12 1012.5 1012.5 0.0
17/05:30am 10.5 5.7 0.3 49 4.2 NW 15 20 8 11 1012.3 1012.3 0.0
17/05:00am 11.1 6.4 0.8 49 4.3 NW 15 17 8 9 1012.2 1012.2 0.0
17/04:30am 11.3 6.6 0.7 48 4.4 NW 15 17 8 9 1012.2 1012.2 0.0
17/04:00am 11.9 7.2 0.7 46 4.7 NW 15 19 8 10 1012.2 1012.2 0.0
17/03:30am 12.1 7.7 0.5 45 4.9 NW 13 19 7 10 1012.3 1012.3 0.0
17/03:00am 10.2 5.8 0.5 51 4.0 NW 13 17 7 9 1012.4 1012.4 0.0
17/02:30am 11.3 6.5 0.4 47 4.5 W 15 19 8 10 1012.6 1012.6 0.0
17/02:00am 12.2 6.7 0.9 46 4.8 W 19 20 10 11 1012.8 1012.8 0.0
17/01:30am 12.9 6.8 0.6 43 5.2 W 22 28 12 15 1012.9 1012.9 0.0
17/01:00am 13.4 6.6 0.8 42 5.4 W 26 33 14 18 1013.0 1013.0 0.0
17/12:30am 13.1 7.0 0.5 42 5.3 W 22 32 12 17 1012.9 1012.9 0.0
17/12:00am 12.3 6.8 0.4 44 5.0 WNW 19 22 10 12 1012.8 1012.8 0.0
 
Date/Time
EST
Temp
°C
App
Temp
°C
Dew
Point
°C
Rel
Hum
%
Delta-T
°C
Wind Press
QNH
hPa
Press
MSL
hPa
Rain since
9am
mm
Dir  Spd
km/h
Gust
km/h
Spd
kts
Gust
kts
16/11:30pm 12.0 8.0 0.8 46 4.7 WNW 11 15 6 8 1012.8 1012.8 0.0
16/11:00pm 12.1 8.1 0.8 46 4.8 WNW 11 15 6 8 1012.8 1012.8 0.0
16/10:30pm 12.2 10.1 1.5 48 4.6 N 2 6 1 3 1012.9 1012.9 0.0
16/10:00pm 12.9 9.4 1.3 45 5.0 WNW 9 15 5 8 1012.9 1012.9 0.0
16/09:30pm 13.6 10.1 1.3 43 5.3 NW 9 11 5 6 1012.8 1012.8 0.0
16/09:00pm 15.3 10.3 1.4 39 6.1 W 17 22 9 12 1012.7 1012.7 0.0
16/08:30pm 13.9 9.7 1.9 44 5.3 WNW 13 15 7 8 1012.5 1012.5 0.0
16/08:00pm 15.0 11.7 2.2 42 5.7 NW 9 11 5 6 1012.3 1012.3 0.0
16/07:30pm 15.7 12.0 2.5 41 6.0 NW 11 13 6 7 1011.9 1011.9 0.0
16/07:00pm 16.4 12.0 2.8 40 6.2 WNW 15 19 8 10 1011.6 1011.6 0.0
16/06:30pm 17.3 12.0 2.1 36 6.9 W 19 24 10 13 1011.2 1011.2 0.0
16/06:00pm 18.1 12.8 2.0 34 7.4 WNW 19 22 10 12 1010.8 1010.8 0.0
16/05:30pm 18.9 13.0 1.9 32 7.8 WNW 22 32 12 17 1010.7 1010.7 0.0
16/05:00pm 19.2 12.9 1.7 31 8.0 W 24 35 13 19 1010.5 1010.5 0.0
16/04:30pm 19.5 13.3 1.9 31 8.1 W 24 32 13 17 1010.3 1010.3 0.0
16/04:00pm 19.9 13.2 1.4 29 8.5 WNW 26 33 14 18 1010.3 1010.3 0.0
16/03:30pm 19.8 12.8 1.7 30 8.3 W 28 37 15 20 1010.3 1010.3 0.0
16/03:00pm 19.8 13.1 1.7 30 8.3 WNW 26 37 14 20 1010.3 1010.3 0.0
16/02:30pm 19.9 14.2 2.7 32 8.1 WNW 22 32 12 17 1010.2 1010.2 0.0
16/02:00pm 19.4 13.7 2.7 33 7.8 WNW 22 32 12 17 1010.3 1010.3 0.0
16/01:30pm 19.5 13.9 3.2 34 7.7 WNW 22 35 12 19 1010.5 1010.5 0.0
16/01:00pm 19.1 13.1 3.3 35 7.5 W 24 43 13 23 1011.1 1011.1 0.0
16/12:30pm 18.3 12.3 3.4 37 7.0 W 24 35 13 19 1011.6 1011.6 0.0
16/12:00pm 17.8 11.9 3.7 39 6.7 W 24 33 13 18 1012.0 1012.0 0.0
16/11:30am 17.4 10.7 3.7 40 6.4 W 28 37 15 20 1012.4 1012.4 0.0
16/11:00am 16.9 10.6 3.6 41 6.2 WSW 26 41 14 22 1012.5 1012.5 0.0
16/10:30am 16.9 10.6 3.9 42 6.1 WSW 26 33 14 18 1012.6 1012.6 0.0
16/10:00am 15.9 9.3 4.0 45 5.6 WSW 28 41 15 22 1012.5 1012.5 0.0
16/09:30am 15.9 9.8 4.6 47 5.4 WSW 26 35 14 19 1012.4 1012.4 0.0
16/09:00am 15.2 8.6 4.3 48 5.1 WSW 28 37 15 20 1012.3 1012.3 0.0
16/08:30am 14.8 9.0 4.2 49 4.9 WSW 24 35 13 19 1012.0 1012.0 0.0
16/08:00am 14.1 9.3 4.4 52 4.5 WSW 19 28 10 15 1011.6 1011.6 0.0
16/07:30am 14.0 8.2 4.3 52 4.5 WSW 24 32 13 17 1011.1 1011.1 0.0
16/07:00am 14.4 8.5 3.8 49 4.9 WSW 24 37 13 20 1010.8 1010.8 0.0
16/06:30am 14.7 9.2 3.8 48 5.0 WSW 22 28 12 15 1010.2 1010.2 0.0
16/06:00am 14.8 9.4 4.5 50 4.8 W 22 35 12 19 1009.9 1009.9 0.0
16/05:30am 14.6 10.3 5.1 53 4.5 WSW 17 24 9 13 1009.6 1009.5 0.0
16/05:00am 14.8 9.0 6.4 57 4.1 WSW 26 35 14 19 1009.4 1009.3 0.0
16/04:30am 15.0 8.5 8.0 63 3.5 SW 32 44 17 24 1009.1 1009.1 0.0
16/04:17am 15.7 8.3 8.4 62 3.7 WSW 37 50 20 27 1009.0 1009.0 0.0
16/04:00am 17.0 9.9 9.7 62 3.9 WSW 37 48 20 26 1008.7 1008.7 0.0
16/03:30am 17.4 11.6 9.3 59 4.3 WSW 30 41 16 22 1008.5 1008.5 0.0
16/03:25am 17.4 12.4 9.6 60 4.1 WSW 26 41 14 22 1008.5 1008.5 0.0
16/03:00am 16.9 14.8 11.0 68 3.2 WSW 13 22 7 12 1008.7 1008.7 0.0
16/02:30am 16.8 15.1 11.1 69 3.1 SW 11 15 6 8 1008.9 1008.9 0.0
16/02:00am 16.4 13.3 10.3 67 3.3 SW 17 20 9 11 1009.1 1009.1 0.0
16/01:30am 15.9 12.3 10.0 68 3.1 SSW 19 24 10 13 1008.6 1008.6 0.0
16/01:00am 16.3 12.6 10.2 67 3.3 S 20 30 11 16 1007.5 1007.5 0.0
16/12:30am 16.7 12.9 9.9 64 3.6 S 20 32 11 17 1007.0 1007.0 0.0
16/12:00am 17.1 14.9 9.5 61 4.0 SSW 11 17 6 9 1006.6 1006.6 0.0
 
Date/Time
EST
Temp
°C
App
Temp
°C
Dew
Point
°C
Rel
Hum
%
Delta-T
°C
Wind Press
QNH
hPa
Press
MSL
hPa
Rain since
9am
mm
Dir  Spd
km/h
Gust
km/h
Spd
kts
Gust
kts
15/11:30pm 17.7 13.8 9.3 58 4.4 SSE 20 28 11 15 1005.8 1005.8 0.0
15/11:00pm 18.2 13.9 9.5 57 4.6 SSE 22 30 12 16 1005.7 1005.7 0.0
15/10:30pm 18.9 14.7 9.7 55 4.9 S 22 32 12 17 1005.6 1005.6 0.0
15/10:00pm 21.6 17.0 6.3 37 7.8 WSW 20 32 11 17 1005.2 1005.2 0.0
15/09:30pm 24.9 18.5 -1.8 17 12.0 NNW 22 30 12 16 1004.2 1004.1 0.0
15/09:00pm 25.3 19.3 -1.5 17 12.2 NNW 20 28 11 15 1004.1 1004.0 0.0
15/08:30pm 26.5 20.0 -2.2 15 12.9 NNW 22 33 12 18 1004.2 1004.1 0.0
15/08:00pm 26.9 20.0 -2.8 14 13.3 NW 24 32 13 17 1004.4 1004.3 0.0
15/07:30pm 27.5 20.3 -2.3 14 13.5 NW 26 35 14 19 1004.4 1004.3 0.0
15/07:00pm 28.0 21.1 -3.0 13 14.0 NW 24 32 13 17 1004.3 1004.2 0.0
15/06:30pm 28.8 21.8 -3.4 12 14.5 NW 24 33 13 18 1004.3 1004.2 0.0
15/06:00pm 29.6 22.7 -2.8 12 14.9 NW 24 35 13 19 1004.3 1004.2 0.0
15/05:30pm 30.6 22.1 -3.2 11 15.5 NW 32 54 17 29 1004.2 1004.1 0.0
15/05:00pm 31.4 22.3 -3.8 10 16.1 NW 35 54 19 29 1004.1 1004.0 0.0
15/04:30pm 31.7 21.8 -3.6 10 16.2 NW 39 59 21 32 1003.9 1003.8 0.0
15/04:00pm 31.5 22.1 -2.5 11 15.9 NW 37 56 20 30 1004.3 1004.2 0.0
15/03:30pm 31.6 21.1 -2.4 11 15.9 NW 43 61 23 33 1004.8 1004.7 0.0
15/03:00pm 32.0 21.2 -3.4 10 16.4 NW 44 65 24 35 1005.0 1004.9 0.0
15/02:31pm 31.8 21.3 -2.3 11 16.0 NW 43 61 23 33 1005.3 1005.3 0.0
15/02:30pm 31.7 21.2 -2.3 11 15.9 NW 43 59 23 32 1005.3 1005.3 0.0
15/02:00pm 31.2 21.2 -1.5 12 15.5 NW 41 59 22 32 1005.8 1005.8 0.0
15/01:30pm 30.9 20.5 -1.8 12 15.4 NW 43 61 23 33 1006.4 1006.4 0.0

Other Formats:

Comma delimited format used in spreadsheet applications
http://www.bom.gov.au/fwo/IDN60801/IDN60801.94686.axf

JavaScript Object Notation format (JSON) in row-major order
http://www.bom.gov.au/fwo/IDN60801/IDN60801.94686.json